Time;durP1;ratioP1;P1;durP2;ratioP2;P2;SDS_P1;SDS_P2;PMS_P1;PMS_P2;Temp;Humidity;BMP_temperature;BMP_pressure;BME280_temperature;BME280_humidity;BME280_pressure;Samples;Min_cycle;Max_cycle;Signal;HPM_P1;HPM_P2
2021/06/13 00:00:06;;;;;;;;;;;;;;;12.17;100.00;101164.88;4975220;28;20332;-73
2021/06/13 00:02:38;;;;;;;;;;;;;;;12.18;100.00;101166.59;4979169;28;19930;-73
2021/06/13 00:05:05;;;;;;;;;;;;;;;12.21;100.00;101167.22;4993656;28;19988;-73
2021/06/13 00:07:31;;;;;;;;;;;;;;;12.20;100.00;101172.81;4990363;28;19933;-72
2021/06/13 00:09:56;;;;;;;;;;;;;;;12.12;100.00;101167.97;4975322;28;19956;-73
2021/06/13 00:12:22;;;;;;;;;;;;;;;12.15;100.00;101178.59;4974869;28;19930;-74
2021/06/13 00:14:49;;;;;;;;;;;;;;;12.12;100.00;101181.59;4974824;28;19926;-72
2021/06/13 00:17:17;;;;;;;;;;;;;;;12.06;100.00;101176.63;5007602;28;19930;-72
2021/06/13 00:19:43;;;;;;;;;;;;;;;12.02;100.00;101183.31;4982950;28;19925;-72
2021/06/13 00:22:08;;;;;;;;;;;;;;;11.95;100.00;101190.22;4993865;28;19964;-73
2021/06/13 00:24:34;;;;;;;;;;;;;;;11.88;100.00;101197.97;4993690;28;19926;-72
2021/06/13 00:27:00;;;;;;;;;;;;;;;11.77;100.00;101204.28;4978740;28;19926;-73
2021/06/13 00:29:26;;;;;;;;;;;;;;;11.74;100.00;101199.06;4973321;28;20412;-73
2021/06/13 00:31:53;;;;;;;;;;;;;;;11.75;100.00;101192.63;4974872;28;19926;-73
2021/06/13 00:34:21;;;;;;;;;;;;;;;11.76;100.00;101197.09;4975045;28;20389;-73
2021/06/13 00:36:47;;;;;;;;;;;;;;;11.77;100.00;101197.94;4987409;28;19933;-72
2021/06/13 00:39:13;;;;;;;;;;;;;;;11.72;100.00;101203.75;4978484;28;20412;-73
2021/06/13 00:41:39;;;;;;;;;;;;;;;11.66;100.00;101205.09;4974129;28;20143;-72
2021/06/13 00:44:05;;;;;;;;;;;;;;;11.59;100.00;101205.72;4974620;28;20305;-73
2021/06/13 00:46:32;;;;;;;;;;;;;;;11.59;100.00;101203.84;4975695;28;19926;-72
2021/06/13 00:49:00;;;;;;;;;;;;;;;11.57;100.00;101200.38;4972818;28;19957;-72
2021/06/13 00:51:26;;;;;;;;;;;;;;;11.57;100.00;101200.38;4989556;28;19958;-72
2021/06/13 00:53:52;;;;;;;;;;;;;;;11.51;100.00;101207.16;4986267;28;20408;-72
2021/06/13 00:56:20;;;;;;;;;;;;;;;11.47;100.00;101204.81;4984306;28;19926;-72
2021/06/13 00:58:48;;;;;;;;;;;;;;;11.43;100.00;101212.31;4974397;28;20392;-73
2021/06/13 01:01:14;;;;;;;;;;;;;;;11.39;100.00;101213.56;4988655;28;20385;-72
2021/06/13 01:03:42;;;;;;;;;;;;;;;11.30;100.00;101211.53;4989451;28;20412;-72
2021/06/13 01:06:10;;;;;;;;;;;;;;;11.26;100.00;101219.06;4982309;28;19926;-72
2021/06/13 01:08:42;;;;;;;;;;;;;;;11.22;100.00;101221.16;4974097;28;19949;-72
2021/06/13 01:11:12;;;;;;;;;;;;;;;11.17;100.00;101208.88;4989041;28;19926;-72
2021/06/13 01:13:41;;;;;;;;;;;;;;;11.11;100.00;101226.53;4973681;28;20060;-72
2021/06/13 01:16:10;;;;;;;;;;;;;;;11.06;100.00;101228.72;4980827;28;19925;-72
2021/06/13 01:18:40;;;;;;;;;;;;;;;11.04;100.00;101225.25;5007911;28;19929;-73
2021/06/13 01:21:09;;;;;;;;;;;;;;;10.95;100.00;101231.38;4993604;28;19930;-72
2021/06/13 01:23:49;;;;;;;;;;;;;;;10.92;100.00;101231.63;4992992;28;20385;-72
2021/06/13 01:26:43;;;;;;;;;;;;;;;10.82;100.00;101235.03;5006731;28;19937;-72
2021/06/13 01:29:12;;;;;;;;;;;;;;;10.74;100.00;101233.84;5008024;28;19926;-72
2021/06/13 01:31:46;;;;;;;;;;;;;;;10.63;100.00;101230.06;5007586;28;19961;-72
2021/06/13 01:34:16;;;;;;;;;;;;;;;10.57;100.00;101230.53;4991014;28;19925;-72
2021/06/13 01:36:45;;;;;;;;;;;;;;;10.58;100.00;101228.69;4981415;28;19926;-73
2021/06/13 01:39:12;;;;;;;;;;;;;;;10.64;100.00;101230.97;4988324;28;20393;-72
2021/06/13 01:41:40;;;;;;;;;;;;;;;10.64;100.00;101239.09;4988598;28;19926;-72
2021/06/13 01:44:07;;;;;;;;;;;;;;;10.61;100.00;101240.19;4987799;28;20344;-72
2021/06/13 01:46:36;;;;;;;;;;;;;;;10.60;100.00;101237.59;4981649;28;20484;-72
2021/06/13 01:49:03;;;;;;;;;;;;;;;10.62;100.00;101243.75;4988162;28;19926;-72
2021/06/13 01:51:30;;;;;;;;;;;;;;;10.60;100.00;101243.03;4973249;28;20036;-72
2021/06/13 01:53:56;;;;;;;;;;;;;;;10.56;100.00;101239.66;4971480;28;20382;-72
2021/06/13 01:56:28;;;;;;;;;;;;;;;10.54;100.00;101237.06;4981519;28;19925;-72
2021/06/13 01:58:57;;;;;;;;;;;;;;;10.52;100.00;101249.00;4991174;28;20415;-72
2021/06/13 02:01:31;;;;;;;;;;;;;;;10.49;100.00;101252.81;5007360;28;19956;-72
2021/06/13 02:04:01;;;;;;;;;;;;;;;10.45;100.00;101251.28;4991253;28;19976;-72
2021/06/13 02:06:43;;;;;;;;;;;;;;;10.47;100.00;101249.31;4991040;28;19925;-72
2021/06/13 02:09:10;;;;;;;;;;;;;;;10.48;100.00;101255.63;5006917;28;19929;-72
2021/06/13 02:11:41;;;;;;;;;;;;;;;10.46;100.00;101253.03;5005993;28;19926;-72
2021/06/13 02:14:08;;;;;;;;;;;;;;;10.48;100.00;101259.22;4987585;28;20437;-72
2021/06/13 02:16:41;;;;;;;;;;;;;;;10.42;100.00;101261.50;4992113;28;20020;-72
2021/06/13 02:19:10;;;;;;;;;;;;;;;10.40;100.00;101258.03;4971866;28;19979;-72
2021/06/13 02:21:41;;;;;;;;;;;;;;;10.44;100.00;101260.41;4987653;28;19993;-72
2021/06/13 02:24:09;;;;;;;;;;;;;;;10.52;100.00;101262.56;4987857;28;19927;-72
2021/06/13 02:26:35;;;;;;;;;;;;;;;10.60;100.00;101259.31;4976636;28;19961;-72
2021/06/13 02:29:03;;;;;;;;;;;;;;;10.65;100.00;101259.81;4992220;28;19932;-72
2021/06/13 02:31:33;;;;;;;;;;;;;;;10.64;100.00;101272.53;4989743;28;20401;-71
2021/06/13 02:33:59;;;;;;;;;;;;;;;10.61;100.00;101269.16;4973549;28;19926;-72
2021/06/13 02:36:28;;;;;;;;;;;;;;;10.54;100.00;101277.78;4975743;28;19933;-71
2021/06/13 02:38:58;;;;;;;;;;;;;;;10.46;100.00;101282.00;4987241;28;19933;-71
2021/06/13 02:41:26;;;;;;;;;;;;;;;10.40;100.00;101291.47;4972919;28;19926;-72
2021/06/13 02:43:53;;;;;;;;;;;;;;;10.33;100.00;101291.00;4987812;28;20382;-72
2021/06/13 02:46:23;;;;;;;;;;;;;;;10.29;100.00;101294.03;4973483;28;20011;-72
2021/06/13 02:48:49;;;;;;;;;;;;;;;10.25;100.00;101303.38;5006942;28;19925;-71
2021/06/13 02:51:17;;;;;;;;;;;;;;;10.26;100.00;101294.25;4990103;28;20443;-72
2021/06/13 02:53:45;;;;;;;;;;;;;;;10.32;100.00;101310.13;4991992;28;19926;-72
2021/06/13 02:56:24;;;;;;;;;;;;;;;10.29;100.00;101304.88;4989708;28;19930;-72
2021/06/13 02:58:57;;;;;;;;;;;;;;;10.27;100.00;101306.84;4971462;28;19933;-72
2021/06/13 03:01:24;;;;;;;;;;;;;;;10.26;100.00;101315.97;4987904;28;20293;-72
2021/06/13 03:03:54;;;;;;;;;;;;;;;10.25;100.00;101322.34;4986942;28;20436;-72
2021/06/13 03:06:23;;;;;;;;;;;;;;;10.22;100.00;101328.88;4973685;28;19925;-72
2021/06/13 03:08:52;;;;;;;;;;;;;;;10.24;100.00;101334.22;4971933;28;20299;-72
2021/06/13 03:11:23;;;;;;;;;;;;;;;10.24;100.00;101331.50;4972695;28;19926;-72
2021/06/13 03:13:49;;;;;;;;;;;;;;;10.25;100.00;101339.53;4987307;28;19926;-72
2021/06/13 03:16:16;;;;;;;;;;;;;;;10.25;100.00;101344.06;4971448;28;20322;-72
2021/06/13 03:18:43;;;;;;;;;;;;;;;10.21;100.00;101352.44;5007154;28;19925;-72
2021/06/13 03:21:11;;;;;;;;;;;;;;;10.21;100.00;101352.44;4989983;28;20421;-72
2021/06/13 03:23:37;;;;;;;;;;;;;;;10.16;100.00;101354.59;4991541;28;20347;-72
2021/06/13 03:26:06;;;;;;;;;;;;;;;10.15;100.00;101360.97;5006970;28;20409;-72
2021/06/13 03:28:34;;;;;;;;;;;;;;;10.12;100.00;101363.91;5004858;28;19925;-72
2021/06/13 03:31:02;;;;;;;;;;;;;;;10.14;100.00;101361.09;4990361;28;20020;-72
2021/06/13 03:33:30;;;;;;;;;;;;;;;10.16;100.00;101370.88;4988668;28;19930;-72
2021/06/13 03:35:57;;;;;;;;;;;;;;;10.21;100.00;101365.13;4972419;28;19926;-71
2021/06/13 03:38:24;;;;;;;;;;;;;;;10.31;100.00;101368.94;4989385;28;19926;-72
2021/06/13 03:40:51;;;;;;;;;;;;;;;10.42;100.00;101373.63;4991460;28;19926;-72
2021/06/13 03:43:20;;;;;;;;;;;;;;;10.54;100.00;101380.94;4990932;28;19926;-72
2021/06/13 03:45:47;;;;;;;;;;;;;;;10.60;100.00;101367.91;4981279;28;19926;-71
2021/06/13 03:48:14;;;;;;;;;;;;;;;10.74;100.00;101373.19;4987301;28;19941;-71
2021/06/13 03:50:42;;;;;;;;;;;;;;;10.84;100.00;101378.84;4993079;28;19930;-72
2021/06/13 03:53:08;;;;;;;;;;;;;;;10.95;100.00;101386.22;4993331;28;19980;-71
2021/06/13 03:55:35;;;;;;;;;;;;;;;11.04;100.00;101380.97;4995272;28;19985;-72
2021/06/13 03:58:01;;;;;;;;;;;;;;;11.07;100.00;101390.75;4990835;28;20453;-71
2021/06/13 04:00:30;;;;;;;;;;;;;;;11.05;100.00;101392.72;4994847;28;19988;-72
2021/06/13 04:02:58;;;;;;;;;;;;;;;11.13;100.00;101400.31;4994490;28;20341;-72
2021/06/13 04:05:29;;;;;;;;;;;;;;;11.11;100.00;101389.53;5008098;28;19926;-72
2021/06/13 04:07:56;;;;;;;;;;;;;;;11.14;100.00;101391.16;4997975;28;19951;-72
2021/06/13 04:10:22;;;;;;;;;;;;;;;11.13;100.00;101393.03;4994206;28;19996;-71
2021/06/13 04:12:49;;;;;;;;;;;;;;;11.18;100.00;101396.28;4994653;28;20312;-72
2021/06/13 04:15:16;;;;;;;;;;;;;;;11.17;100.00;101391.81;4994705;28;19953;-71
2021/06/13 04:17:44;;;;;;;;;;;;;;;11.18;100.00;101399.00;4994544;28;19926;-72
2021/06/13 04:20:11;;;;;;;;;;;;;;;11.27;100.00;101405.59;4994759;28;19929;-72
2021/06/13 04:22:38;;;;;;;;;;;;;;;11.40;100.00;101397.41;5000961;28;20370;-71
2021/06/13 04:25:07;;;;;;;;;;;;;;;11.55;100.00;101393.53;5013997;28;19940;-71
2021/06/13 04:27:35;;;;;;;;;;;;;;;11.77;100.00;101400.09;5014176;28;19930;-72
2021/06/13 04:30:01;;;;;;;;;;;;;;;11.98;100.00;101403.06;5009199;28;19925;-72
2021/06/13 04:32:29;;;;;;;;;;;;;;;12.07;100.00;101398.78;4994279;28;19925;-72
2021/06/13 04:34:56;;;;;;;;;;;;;;;12.03;100.00;101394.56;5008862;28;20391;-72
2021/06/13 04:37:24;;;;;;;;;;;;;;;12.04;100.00;101399.88;4994284;28;19926;-72
2021/06/13 04:39:50;;;;;;;;;;;;;;;12.04;100.00;101409.91;4993962;28;19925;-72
2021/06/13 04:42:16;;;;;;;;;;;;;;;12.07;100.00;101401.50;4993687;28;19980;-71
2021/06/13 04:44:43;;;;;;;;;;;;;;;12.08;100.00;101405.97;4994183;28;19984;-71
2021/06/13 04:47:10;;;;;;;;;;;;;;;12.10;100.00;101409.41;4994658;28;19930;-71
2021/06/13 04:49:37;;;;;;;;;;;;;;;12.05;100.00;101411.63;4993987;28;19930;-72
2021/06/13 04:52:07;;;;;;;;;;;;;;;12.12;100.00;101415.63;4993761;28;20041;-73
2021/06/13 04:54:40;;;;;;;;;;;;;;;12.16;100.00;101417.13;4993797;28;19973;-73
2021/06/13 04:57:15;;;;;;;;;;;;;;;12.23;100.00;101418.34;4993867;28;19929;-72
2021/06/13 04:59:41;;;;;;;;;;;;;;;12.23;100.00;101415.63;4993284;28;19933;-71
2021/06/13 05:02:08;;;;;;;;;;;;;;;12.18;100.00;101422.44;4993260;28;19984;-71
2021/06/13 05:04:34;;;;;;;;;;;;;;;12.13;100.00;101425.53;4993626;28;19980;-71
2021/06/13 05:07:03;;;;;;;;;;;;;;;12.12;100.00;101429.22;4992918;28;19930;-71
2021/06/13 05:09:31;;;;;;;;;;;;;;;12.04;100.00;101426.22;4993610;28;19934;-73
2021/06/13 05:11:57;;;;;;;;;;;;;;;12.04;100.00;101432.53;4993067;28;19980;-73
2021/06/13 05:14:24;;;;;;;;;;;;;;;12.10;100.00;101428.47;4993357;28;19938;-72
2021/06/13 05:16:50;;;;;;;;;;;;;;;12.17;100.00;101426.13;4993526;28;19961;-73
2021/06/13 05:19:16;;;;;;;;;;;;;;;12.23;100.00;101442.00;4992643;28;20389;-72
2021/06/13 05:21:43;;;;;;;;;;;;;;;12.24;100.00;101438.31;4993427;28;19926;-72
2021/06/13 05:24:09;;;;;;;;;;;;;;;12.23;100.00;101442.00;4993093;28;19930;-72
2021/06/13 05:26:37;;;;;;;;;;;;;;;12.30;100.00;101443.25;5006007;28;19926;-73
2021/06/13 05:29:04;;;;;;;;;;;;;;;12.35;100.00;101446.50;4988276;28;20348;-73
2021/06/13 05:31:30;;;;;;;;;;;;;;;12.46;100.00;101445.66;4992905;28;19941;-73
2021/06/13 05:33:57;;;;;;;;;;;;;;;12.43;100.00;101453.22;4993188;28;19929;-71
2021/06/13 05:36:23;;;;;;;;;;;;;;;12.39;100.00;101444.41;4993188;28;19930;-72
2021/06/13 05:38:49;;;;;;;;;;;;;;;12.41;100.00;101445.13;5007898;28;19925;-72
2021/06/13 05:41:16;;;;;;;;;;;;;;;12.54;100.00;101445.06;4993203;28;20374;-72
2021/06/13 05:43:44;;;;;;;;;;;;;;;12.57;100.00;101444.81;4992496;28;19926;-72
2021/06/13 05:46:10;;;;;;;;;;;;;;;12.68;100.00;101455.75;5009078;28;20408;-72
2021/06/13 05:48:36;;;;;;;;;;;;;;;12.67;100.00;101451.28;4993005;28;19961;-72
2021/06/13 05:51:03;;;;;;;;;;;;;;;12.74;100.00;101454.38;4992344;28;19926;-72
2021/06/13 05:53:30;;;;;;;;;;;;;;;12.82;100.00;101460.09;4992476;28;19925;-71
2021/06/13 05:55:57;;;;;;;;;;;;;;;12.96;100.00;101463.56;4990966;28;19926;-72
2021/06/13 05:58:23;;;;;;;;;;;;;;;13.01;100.00;101469.53;4993290;28;19926;-72
2021/06/13 06:00:51;;;;;;;;;;;;;;;12.94;100.00;101473.75;5003930;28;20121;-72
2021/06/13 06:03:17;;;;;;;;;;;;;;;12.94;100.00;101473.75;5009974;28;20372;-72
2021/06/13 06:05:43;;;;;;;;;;;;;;;12.88;100.00;101475.06;5012054;28;19936;-72
2021/06/13 06:08:10;;;;;;;;;;;;;;;12.86;100.00;101477.94;5010310;28;20388;-72
2021/06/13 06:10:36;;;;;;;;;;;;;;;12.79;100.00;101481.28;5010185;28;20385;-73
2021/06/13 06:13:04;;;;;;;;;;;;;;;12.86;100.00;101485.25;4997325;28;20090;-72
2021/06/13 06:15:31;;;;;;;;;;;;;;;13.03;100.00;101486.66;4999875;28;19926;-72
2021/06/13 06:17:59;;;;;;;;;;;;;;;13.21;100.00;101484.28;4984013;28;20117;-72
2021/06/13 06:20:26;;;;;;;;;;;;;;;13.31;100.00;101498.91;4979113;28;20456;-72
2021/06/13 06:22:54;;;;;;;;;;;;;;;13.50;100.00;101502.91;4991849;28;20193;-72
2021/06/13 06:25:20;;;;;;;;;;;;;;;13.47;100.00;101498.56;4991291;28;19933;-74
2021/06/13 06:27:47;;;;;;;;;;;;;;;13.52;100.00;101493.63;4990413;28;19979;-73
2021/06/13 06:30:14;;;;;;;;;;;;;;;13.63;100.00;101503.66;4992028;28;19926;-73
2021/06/13 06:32:40;;;;;;;;;;;;;;;13.33;100.00;101496.06;4991724;28;20400;-73
2021/06/13 06:35:09;;;;;;;;;;;;;;;13.18;100.00;101503.63;4994205;28;20455;-73
2021/06/13 06:37:38;;;;;;;;;;;;;;;13.08;100.00;101508.97;4972962;28;20273;-73
2021/06/13 06:40:05;;;;;;;;;;;;;;;13.18;100.00;101514.53;4987232;28;19965;-73
2021/06/13 06:42:32;;;;;;;;;;;;;;;13.20;100.00;101502.50;4990243;28;19973;-73
2021/06/13 06:44:58;;;;;;;;;;;;;;;13.20;100.00;101513.41;5010225;28;19937;-72
2021/06/13 06:47:25;;;;;;;;;;;;;;;13.20;100.00;101507.97;4992380;28;20425;-72
2021/06/13 06:49:51;;;;;;;;;;;;;;;13.33;100.00;101505.09;5001378;28;20397;-72
2021/06/13 06:52:19;;;;;;;;;;;;;;;13.53;100.00;101511.69;4997209;28;19980;-72
2021/06/13 06:54:45;;;;;;;;;;;;;;;13.78;100.00;101517.88;4992030;28;20337;-72
2021/06/13 06:57:12;;;;;;;;;;;;;;;13.79;100.00;101505.09;4993076;28;19925;-72
2021/06/13 06:59:38;;;;;;;;;;;;;;;13.77;100.00;101523.47;4991805;28;20390;-72
2021/06/13 07:02:05;;;;;;;;;;;;;;;13.92;100.00;101514.00;5002613;28;19926;-72
2021/06/13 07:04:31;;;;;;;;;;;;;;;14.01;100.00;101506.94;5011430;28;19932;-73
2021/06/13 07:06:57;;;;;;;;;;;;;;;14.10;100.00;101513.50;5007942;28;19961;-72
2021/06/13 07:09:25;;;;;;;;;;;;;;;14.35;100.00;101518.59;5011073;28;19988;-72
2021/06/13 07:11:51;;;;;;;;;;;;;;;14.29;100.00;101521.00;5001013;28;19976;-72
2021/06/13 07:14:18;;;;;;;;;;;;;;;14.18;100.00;101508.25;4992211;28;19929;-72
2021/06/13 07:16:44;;;;;;;;;;;;;;;14.15;100.00;101517.56;4991433;28;20160;-72
2021/06/13 07:19:10;;;;;;;;;;;;;;;14.29;100.00;101526.44;5005760;28;19933;-73
2021/06/13 07:21:37;;;;;;;;;;;;;;;14.23;100.00;101515.03;5011321;28;20377;-73
2021/06/13 07:24:03;;;;;;;;;;;;;;;14.32;100.00;101520.72;4998452;28;19972;-72
2021/06/13 07:26:31;;;;;;;;;;;;;;;14.49;100.00;101522.88;5014828;28;19975;-72
2021/06/13 07:28:57;;;;;;;;;;;;;;;14.52;100.00;101519.91;5013240;28;19960;-72
2021/06/13 07:31:23;;;;;;;;;;;;;;;14.51;100.00;101520.91;5012281;28;19925;-72
2021/06/13 07:33:50;;;;;;;;;;;;;;;14.69;100.00;101510.28;5010867;28;19965;-73
2021/06/13 07:36:16;;;;;;;;;;;;;;;14.92;100.00;101526.53;5014283;28;20245;-72
2021/06/13 07:38:42;;;;;;;;;;;;;;;15.23;100.00;101527.47;5003515;28;19930;-73
2021/06/13 07:41:09;;;;;;;;;;;;;;;15.30;100.00;101522.31;5000212;28;20389;-73
2021/06/13 07:43:36;;;;;;;;;;;;;;;15.16;100.00;101519.94;4988566;28;19926;-72
2021/06/13 07:46:02;;;;;;;;;;;;;;;15.18;100.00;101524.25;4992274;28;19988;-73
2021/06/13 07:48:29;;;;;;;;;;;;;;;15.06;100.00;101522.63;4997039;28;19930;-73
2021/06/13 07:50:55;;;;;;;;;;;;;;;15.11;100.00;101523.06;4995584;28;19925;-73
2021/06/13 07:53:22;;;;;;;;;;;;;;;15.19;100.00;101523.28;4994935;28;19995;-73
2021/06/13 07:55:48;;;;;;;;;;;;;;;15.17;100.00;101528.00;5001067;28;20301;-73
2021/06/13 07:58:14;;;;;;;;;;;;;;;15.42;100.00;101523.09;4978371;28;19930;-73
2021/06/13 08:00:42;;;;;;;;;;;;;;;15.40;100.00;101530.56;5005163;28;19930;-73
2021/06/13 08:03:08;;;;;;;;;;;;;;;15.60;100.00;101527.91;5022050;28;19933;-73
2021/06/13 08:05:35;;;;;;;;;;;;;;;15.82;100.00;101525.00;4998026;28;19980;-73
2021/06/13 08:08:04;;;;;;;;;;;;;;;15.76;100.00;101541.06;5013119;28;19925;-73
2021/06/13 08:10:30;;;;;;;;;;;;;;;15.92;100.00;101548.81;5014257;28;19929;-72
2021/06/13 08:12:57;;;;;;;;;;;;;;;16.09;100.00;101549.97;4997444;28;20326;-72
2021/06/13 08:15:24;;;;;;;;;;;;;;;15.82;100.00;101554.22;5009319;28;20023;-73
2021/06/13 08:17:52;;;;;;;;;;;;;;;15.76;100.00;101552.88;5008582;28;20000;-73
2021/06/13 08:20:18;;;;;;;;;;;;;;;15.37;100.00;101559.03;4994303;28;19996;-72
2021/06/13 08:22:45;;;;;;;;;;;;;;;15.10;100.00;101567.81;4994413;28;19957;-73
2021/06/13 08:25:12;;;;;;;;;;;;;;;14.95;100.00;101574.63;4994271;28;20048;-73
2021/06/13 08:27:39;;;;;;;;;;;;;;;14.96;100.00;101574.47;4994551;28;19973;-73
2021/06/13 08:30:06;;;;;;;;;;;;;;;14.88;100.00;101575.16;4993928;28;19926;-73
2021/06/13 08:32:32;;;;;;;;;;;;;;;14.75;100.00;101582.66;4990357;28;20020;-72
2021/06/13 08:35:00;;;;;;;;;;;;;;;15.02;100.00;101589.50;4993234;28;19969;-73
2021/06/13 08:37:26;;;;;;;;;;;;;;;15.06;100.00;101596.44;4992723;28;19930;-73
2021/06/13 08:39:53;;;;;;;;;;;;;;;14.96;100.00;101584.56;4993780;28;19926;-72
2021/06/13 08:42:19;;;;;;;;;;;;;;;14.98;100.00;101583.44;4992971;28;19965;-72
2021/06/13 08:44:46;;;;;;;;;;;;;;;14.85;100.00;101588.22;4993997;28;19996;-73
2021/06/13 08:47:16;;;;;;;;;;;;;;;14.69;100.00;101597.72;4994099;28;19930;-72
2021/06/13 08:49:42;;;;;;;;;;;;;;;14.76;100.00;101603.53;4993921;28;19932;-73
2021/06/13 08:52:11;;;;;;;;;;;;;;;14.73;100.00;101607.38;5008803;28;19937;-73
2021/06/13 08:54:37;;;;;;;;;;;;;;;14.63;100.00;101606.44;4993994;28;20344;-72
2021/06/13 08:57:04;;;;;;;;;;;;;;;14.62;100.00;101607.41;5008674;28;19980;-72
2021/06/13 08:59:30;;;;;;;;;;;;;;;14.81;100.00;101612.19;4993981;28;20467;-72
2021/06/13 09:01:57;;;;;;;;;;;;;;;14.93;100.00;101620.38;5003824;28;19980;-72
2021/06/13 09:04:23;;;;;;;;;;;;;;;15.09;100.00;101618.03;5005131;28;19925;-72
2021/06/13 09:06:50;;;;;;;;;;;;;;;14.84;100.00;101616.53;4992486;28;19929;-72
2021/06/13 09:09:18;;;;;;;;;;;;;;;14.93;100.00;101623.09;4996042;28;19940;-71
2021/06/13 09:11:56;;;;;;;;;;;;;;;14.80;100.00;101626.84;4987824;28;19973;-71
2021/06/13 09:14:23;;;;;;;;;;;;;;;14.81;100.00;101620.41;4991214;28;19984;-71
2021/06/13 09:16:49;;;;;;;;;;;;;;;14.85;100.00;101621.88;4993407;28;19948;-72
2021/06/13 09:19:16;;;;;;;;;;;;;;;14.96;100.00;101628.28;4996800;28;19938;-72
2021/06/13 09:21:42;;;;;;;;;;;;;;;15.29;100.00;101631.84;4993448;28;19977;-73
2021/06/13 09:24:20;;;;;;;;;;;;;;;15.28;100.00;101622.75;4994506;28;20344;-72
2021/06/13 09:26:46;;;;;;;;;;;;;;;15.22;100.00;101628.78;4992313;28;20372;-72
2021/06/13 09:29:13;;;;;;;;;;;;;;;15.33;100.00;101634.19;4993181;28;20396;-73
2021/06/13 09:31:39;;;;;;;;;;;;;;;15.56;100.00;101628.56;4995339;28;20049;-73
2021/06/13 09:34:13;;;;;;;;;;;;;;;15.60;100.00;101640.97;4993783;28;19941;-73
2021/06/13 09:36:39;;;;;;;;;;;;;;;15.77;100.00;101641.31;5009683;28;19979;-73
2021/06/13 09:39:07;;;;;;;;;;;;;;;15.69;100.00;101636.56;5010770;28;20443;-73
2021/06/13 09:41:35;;;;;;;;;;;;;;;15.78;100.00;101645.81;4982264;28;20032;-73
2021/06/13 09:44:03;;;;;;;;;;;;;;;15.99;100.00;101643.06;5007520;28;20371;-73
2021/06/13 09:46:30;;;;;;;;;;;;;;;16.16;100.00;101645.13;4996008;28;20381;-73
2021/06/13 09:48:59;;;;;;;;;;;;;;;15.93;100.00;101643.59;4992313;28;19926;-72
2021/06/13 09:51:26;;;;;;;;;;;;;;;15.98;100.00;101642.19;4992537;28;19972;-73
2021/06/13 09:53:53;;;;;;;;;;;;;;;15.81;100.00;101649.19;4990885;28;19934;-73
2021/06/13 09:56:21;;;;;;;;;;;;;;;15.94;100.00;101637.13;4992685;28;20020;-73
2021/06/13 09:58:53;;;;;;;;;;;;;;;16.11;100.00;101646.56;4992183;28;19925;-73
2021/06/13 10:01:20;;;;;;;;;;;;;;;16.03;100.00;101650.00;4992955;28;19981;-73
2021/06/13 10:03:48;;;;;;;;;;;;;;;16.02;100.00;101651.88;4991741;28;19991;-72
2021/06/13 10:06:15;;;;;;;;;;;;;;;15.96;100.00;101657.03;4992484;28;19929;-73
2021/06/13 10:08:42;;;;;;;;;;;;;;;15.96;100.00;101657.03;4991529;28;19965;-73
2021/06/13 10:11:09;;;;;;;;;;;;;;;15.99;100.00;101662.22;4992519;28;19925;-73
2021/06/13 10:13:43;;;;;;;;;;;;;;;15.94;100.00;101673.59;4992464;28;20008;-73
2021/06/13 10:16:20;;;;;;;;;;;;;;;15.52;100.00;101663.53;4992170;28;19933;-73
2021/06/13 10:18:51;;;;;;;;;;;;;;;15.45;100.00;101664.22;4991295;28;19980;-73
2021/06/13 10:21:17;;;;;;;;;;;;;;;15.36;100.00;101676.81;4992155;28;20286;-73
2021/06/13 10:23:45;;;;;;;;;;;;;;;15.57;100.00;101669.47;4992045;28;19926;-73
2021/06/13 10:26:11;;;;;;;;;;;;;;;15.46;100.00;101665.94;4992229;28;19929;-73
2021/06/13 10:28:38;;;;;;;;;;;;;;;15.58;100.00;101675.81;4992132;28;19925;-73
2021/06/13 10:31:04;;;;;;;;;;;;;;;15.47;100.00;101675.88;4992182;28;19926;-73
2021/06/13 10:33:32;;;;;;;;;;;;;;;15.32;100.00;101670.72;5007180;28;19929;-74
2021/06/13 10:36:01;;;;;;;;;;;;;;;15.56;100.00;101684.13;4991956;28;19926;-72
2021/06/13 10:38:27;;;;;;;;;;;;;;;15.70;100.00;101690.28;4992339;28;19956;-72
2021/06/13 10:40:54;;;;;;;;;;;;;;;15.89;100.00;101682.22;4990685;28;19984;-72
2021/06/13 10:43:21;;;;;;;;;;;;;;;15.94;100.00;101692.78;4992194;28;19925;-72
2021/06/13 10:45:47;;;;;;;;;;;;;;;15.90;100.00;101697.63;4991840;28;19989;-73
2021/06/13 10:48:14;;;;;;;;;;;;;;;15.59;100.00;101695.84;4992388;28;19926;-73
2021/06/13 10:50:42;;;;;;;;;;;;;;;15.48;100.00;101700.34;4992312;28;19980;-72
2021/06/13 10:53:10;;;;;;;;;;;;;;;15.36;100.00;101696.81;4991453;28;20469;-73
2021/06/13 10:55:49;;;;;;;;;;;;;;;15.45;100.00;101703.38;4992135;28;19926;-73
2021/06/13 10:58:34;;;;;;;;;;;;;;;15.63;100.00;101695.41;4991760;28;19930;-72
2021/06/13 11:01:15;;;;;;;;;;;;;;;15.92;100.00;101697.50;4996111;28;19980;-72
2021/06/13 11:03:57;;;;;;;;;;;;;;;16.08;100.00;101697.00;4996259;28;19926;-73
2021/06/13 11:06:44;;;;;;;;;;;;;;;16.21;100.00;101703.09;4998389;28;19925;-73
2021/06/13 11:09:13;;;;;;;;;;;;;;;16.46;100.00;101709.13;4990577;28;19926;-72
2021/06/13 11:11:41;;;;;;;;;;;;;;;16.30;100.00;101706.03;5012396;28;19944;-73
2021/06/13 11:14:26;;;;;;;;;;;;;;;16.45;100.00;101704.63;5013608;28;20392;-72
2021/06/13 11:16:52;;;;;;;;;;;;;;;16.67;100.00;101709.00;5014869;28;20052;-73
2021/06/13 11:19:29;;;;;;;;;;;;;;;17.09;100.00;101718.06;5012464;28;19925;-73
2021/06/13 11:22:14;;;;;;;;;;;;;;;17.26;100.00;101724.72;5014706;28;20438;-73
2021/06/13 11:24:48;;;;;;;;;;;;;;;17.12;100.00;101718.66;4989853;28;19972;-73
2021/06/13 11:27:14;;;;;;;;;;;;;;;17.19;100.00;101718.94;5008052;28;20035;-73
2021/06/13 11:29:54;;;;;;;;;;;;;;;16.70;100.00;101727.94;4993989;28;19926;-73
2021/06/13 11:32:39;;;;;;;;;;;;;;;16.45;100.00;101723.81;5007493;28;19925;-73
2021/06/13 11:35:22;;;;;;;;;;;;;;;16.51;100.00;101720.50;5029928;28;19984;-73
2021/06/13 11:37:49;;;;;;;;;;;;;;;16.68;100.00;101721.72;4998027;28;19925;-73
2021/06/13 11:40:30;;;;;;;;;;;;;;;16.67;100.00;101721.84;4996187;28;20024;-73
2021/06/13 11:43:14;;;;;;;;;;;;;;;16.96;100.00;101724.69;4998724;28;19925;-72
2021/06/13 11:45:50;;;;;;;;;;;;;;;17.16;97.48;101711.84;5020919;28;19926;-73
2021/06/13 11:48:17;;;;;;;;;;;;;;;17.15;94.39;101712.84;4987832;28;20003;-73
2021/06/13 11:50:44;;;;;;;;;;;;;;;17.45;97.42;101712.84;4995303;28;19926;-72
2021/06/13 11:53:14;;;;;;;;;;;;;;;17.62;94.97;101708.50;4994421;28;19937;-73
2021/06/13 11:56:00;;;;;;;;;;;;;;;17.35;92.58;101710.97;4994922;28;20340;-73
2021/06/13 11:58:27;;;;;;;;;;;;;;;17.19;94.36;101700.59;5010221;28;19926;-73
2021/06/13 12:00:57;;;;;;;;;;;;;;;17.32;96.11;101704.94;4994709;28;19932;-72
2021/06/13 12:03:24;;;;;;;;;;;;;;;16.96;98.50;101719.19;4994848;28;19925;-72
2021/06/13 12:06:03;;;;;;;;;;;;;;;16.99;97.62;101721.66;4994263;28;19926;-73
2021/06/13 12:08:30;;;;;;;;;;;;;;;16.99;97.52;101720.78;4994637;28;19933;-73
2021/06/13 12:10:58;;;;;;;;;;;;;;;17.41;97.16;101717.78;4993722;28;20317;-73
2021/06/13 12:13:27;;;;;;;;;;;;;;;18.01;97.06;101724.91;5007589;28;20340;-73
2021/06/13 12:15:54;;;;;;;;;;;;;;;18.20;90.20;101722.09;5009734;28;20028;-73
2021/06/13 12:18:20;;;;;;;;;;;;;;;18.82;90.83;101720.63;5013855;28;19930;-73
2021/06/13 12:20:56;;;;;;;;;;;;;;;19.21;82.83;101718.50;5011494;28;19971;-72
2021/06/13 12:23:30;;;;;;;;;;;;;;;19.60;81.07;101721.88;5000496;28;19925;-73
2021/06/13 12:28:42;;;;;;;;;;;;;;;19.41;73.41;101712.78;5010910;28;19932;-74
2021/06/13 12:31:08;;;;;;;;;;;;;;;19.39;79.83;101715.72;5010340;28;20220;-73
2021/06/13 12:33:35;;;;;;;;;;;;;;;19.16;78.61;101726.34;4997372;28;19980;-74
2021/06/13 12:36:03;;;;;;;;;;;;;;;19.18;80.99;101734.44;4994910;28;19988;-74